Date,TemperatureHighF,TemperatureAvgF,TemperatureLowF,DewpointHighF,DewpointAvgF,DewpointLowF,HumidityHigh,HumidityAvg,HumidityLow,PressureMaxIn,PressureMinIn,WindSpeedMaxMPH,WindSpeedAvgMPH,GustSpeedMaxMPH,PrecipitationSumIn
2013-9-1,90.0,77.8,68.7,76.0,71.9,66.0,95,83,58,29.84,29.76,9,1,13,0.00
2013-9-2,80.6,73.7,70.1,76.0,71.3,68.0,95,92,84,29.79,29.71,5,1,8,0.75
2013-9-3,84.3,73.3,60.9,75.0,67.1,59.0,96,82,52,29.89,29.71,9,2,13,0.01
2013-9-4,80.7,60.6,53.1,62.0,56.3,52.0,96,87,40,30.02,29.89,7,1,13,0.00
2013-9-5,81.0,66.9,54.4,66.0,57.8,49.0,96,74,51,30.10,29.96,8,2,14,0.00
2013-9-6,73.9,60.2,47.5,55.0,49.1,46.0,93,70,40,30.23,30.11,8,2,11,0.00
2013-9-7,78.6,60.5,40.1,59.0,49.5,39.0,95,72,36,30.13,29.92,7,1,10,0.00
2013-9-8,85.3,70.6,55.6,68.0,61.4,51.0,95,75,55,30.04,29.82,8,2,13,0.00
2013-9-9,74.7,63.8,51.2,62.0,56.3,48.0,92,77,60,30.20,30.05,9,2,14,0.00
2013-9-10,87.1,74.4,58.7,75.0,68.7,56.0,94,83,65,30.18,30.07,10,2,13,0.00
2013-9-11,91.7,78.3,67.9,79.0,71.5,66.0,95,81,57,30.13,30.00,10,2,14,0.00
2013-9-12,88.4,76.4,67.5,76.0,70.6,66.0,95,83,57,29.99,29.70,11,3,18,0.18
2013-9-13,76.9,68.5,56.8,68.0,61.8,53.0,93,81,52,29.86,29.64,9,2,15,0.14
2013-9-14,66.2,55.9,41.9,53.0,48.6,40.0,94,78,56,30.14,29.86,10,2,14,0.00
2013-9-15,74.5,55.5,35.5,56.0,46.9,34.0,96,76,42,30.22,30.09,7,2,11,0.00
2013-9-16,69.9,60.8,51.4,64.0,56.6,50.0,95,86,63,30.20,30.02,5,1,10,0.01
2013-9-17,65.5,54.2,37.4,53.0,44.2,36.0,93,71,44,30.40,30.20,12,4,16,0.00
2013-9-18,71.5,51.2,32.4,56.0,42.6,-99.9,96,77,46,30.34,30.19,7,-10,10,0.00
2013-9-19,76.4,56.6,36.7,58.0,48.1,35.0,95,77,44,30.20,30.07,5,1,10,0.00
2013-9-20,79.6,59.5,41.3,62.0,52.2,40.0,96,80,46,30.09,29.99,8,1,12,0.00
2013-9-21,80.0,64.2,44.7,68.0,57.7,43.0,97,82,43,30.00,29.68,16,4,22,0.04
2013-9-22,71.3,62.5,47.5,66.0,54.9,45.0,93,78,48,29.90,29.65,10,3,14,0.65
2013-9-23,66.8,53.1,38.2,49.0,44.3,36.0,94,75,48,30.04,29.90,13,2,17,0.00
2013-9-24,70.4,52.0,37.5,55.0,44.3,36.0,95,78,46,30.06,29.90,8,1,12,0.00
2013-9-25,74.1,54.7,37.8,56.0,47.0,37.0,96,79,40,29.94,29.86,4,1,10,0.00
2013-9-26,71.7,56.0,43.8,60.0,51.0,42.0,97,84,59,30.07,29.91,9,1,11,0.00
2013-9-27,69.3,57.3,44.8,58.0,51.9,44.0,97,83,61,30.23,30.07,6,2,11,0.00
2013-9-28,71.6,59.8,47.0,58.0,52.6,45.0,93,79,47,30.29,30.20,12,3,15,0.00
2013-9-29,71.9,57.6,45.1,59.0,50.9,43.0,95,80,50,30.20,30.06,9,2,15,0.00
2013-9-30,74.0,55.4,39.9,59.0,48.8,39.0,96,81,47,30.06,29.97,7,1,9,0.00